| |
Missouri Department of Transportation

Social Media Facebook Twitter Flickr Instagram YouTube RSS

Current AWOS Information

AWOS Home - General Info for all Airports
Current AWOS for all Airports - Current METAR for all Airports
Glossary - Disclaimer - Other Links

Recent AWOS History
10/06/15     02:42 AM CDT      07:42 GMT
Air Temperature 54°F (12°C ) 1st Cloud Layer Clear
Dew Point 54°F (12°C) 2nd Cloud Layer  
Barometric Pressure 30.16 in Hg. 3rd Cloud Layer  
Wind Speed 0 mph (0 knots) Density Altitude  
Peak Wind Gusts   Variable Wind Directions  
Wind Direction   Variable Visibility  
Visibility 5 statute miles  

Thunderstorm and Precipitation Identification:  Mist
Thunderstorm Remarks: 

Current METAR Record: METAR KRAW 060747Z AUTO 00000KT 7SM CLR 12/12 A3016 RMK AO2




About Us
How Do I...
Contact Us
Missouri Department of Transportation
Central Office
105 W. Capitol Avenue
Jefferson City, MO 65102
1-888-ASK-MODOT (275-6636)
1-866-831-6277 (Motor Carrier Services)
Driver's License Offices
| | |
Missouri State Government
© 2013 Missouri Department of Transportation. All Rights Reserved.   Privacy Policy.
RSS FeedYoutubeBlogFlickrTwitter Facebook